createdAt,value
2017-11-10T00:01:59.261Z,101285.23
2017-11-10T00:04:26.876Z,101280.66
2017-11-10T00:06:54.403Z,101277.66
2017-11-10T00:09:22.007Z,101279.73
2017-11-10T00:11:49.538Z,101277.61
2017-11-10T00:14:17.072Z,101271.56
2017-11-10T00:16:44.662Z,101273.31
2017-11-10T00:19:12.198Z,101277.19
2017-11-10T00:21:39.742Z,101276.33
2017-11-10T00:24:07.297Z,101270.34
2017-11-10T00:26:34.829Z,101264.58
2017-11-10T00:29:02.358Z,101267.48
2017-11-10T00:31:29.946Z,101269.66
2017-11-10T00:33:57.590Z,101271.52
2017-11-10T00:36:25.085Z,101269.81
2017-11-10T00:38:52.616Z,101271.23
2017-11-10T00:41:20.105Z,101268.53
2017-11-10T00:43:47.593Z,101267.41
2017-11-10T00:46:15.160Z,101268.30
2017-11-10T00:48:42.648Z,101270.30
2017-11-10T00:51:10.147Z,101275.73
2017-11-10T00:53:37.690Z,101272.92
2017-11-10T00:56:05.192Z,101273.29
2017-11-10T00:58:32.773Z,101271.91
2017-11-10T01:01:00.293Z,101267.30
2017-11-10T01:03:27.777Z,101261.59
2017-11-10T01:05:55.327Z,101254.09
2017-11-10T01:08:22.868Z,101258.02
2017-11-10T01:10:50.354Z,101249.98
2017-11-10T01:13:17.848Z,101243.30
2017-11-10T01:15:45.384Z,101250.63
2017-11-10T01:18:12.872Z,101247.63
2017-11-10T01:20:40.357Z,101245.53
2017-11-10T01:23:07.942Z,101240.30
2017-11-10T01:25:35.432Z,101239.25
2017-11-10T01:28:02.944Z,101235.73
2017-11-10T01:30:30.468Z,101229.59
2017-11-10T01:32:57.965Z,101233.91
2017-11-10T01:35:25.532Z,101230.91
2017-11-10T01:37:53.049Z,101229.61
2017-11-10T01:40:20.644Z,101226.02
2017-11-10T01:42:48.131Z,101226.96
2017-11-10T01:45:17.449Z,101217.05
2017-11-10T01:47:44.967Z,101212.98
2017-11-10T01:50:12.473Z,101214.91
2017-11-10T01:52:39.980Z,101210.75
2017-11-10T01:55:07.541Z,101208.22
2017-11-10T01:57:35.037Z,101209.22
2017-11-10T02:00:02.533Z,101199.44
2017-11-10T02:02:30.065Z,101190.04
2017-11-10T02:04:57.556Z,101182.81
2017-11-10T02:07:25.049Z,101174.44
2017-11-10T02:09:52.584Z,101176.36
2017-11-10T02:12:20.121Z,101167.88
2017-11-10T02:14:47.626Z,101170.58
2017-11-10T02:17:15.112Z,101163.02
2017-11-10T02:19:42.651Z,101158.74
2017-11-10T02:22:10.181Z,101158.08
2017-11-10T02:24:37.736Z,101163.47
2017-11-10T02:27:05.407Z,101153.06
2017-11-10T02:29:32.907Z,101145.27
2017-11-10T02:32:00.417Z,101138.58
2017-11-10T02:34:27.952Z,101128.52
2017-11-10T02:36:55.445Z,101133.20
2017-11-10T02:39:27.981Z,101135.30
2017-11-10T02:41:55.475Z,101137.66
2017-11-10T02:44:22.971Z,101133.20
2017-11-10T02:46:50.506Z,101132.15
2017-11-10T02:49:17.997Z,101132.07
2017-11-10T02:51:45.486Z,101125.39
2017-11-10T02:54:13.028Z,101129.73
2017-11-10T02:56:40.542Z,101122.18
2017-11-10T02:59:08.037Z,101110.88
2017-11-10T03:01:35.570Z,101110.70
2017-11-10T03:04:03.066Z,101109.13
2017-11-10T03:06:30.649Z,101107.48
2017-11-10T03:08:58.198Z,101101.09
2017-11-10T03:11:25.689Z,101092.07
2017-11-10T03:13:53.179Z,101089.33
2017-11-10T03:16:20.703Z,101080.81
2017-11-10T03:18:48.189Z,101070.44
2017-11-10T03:21:15.702Z,101069.52
2017-11-10T03:23:43.357Z,101069.83
2017-11-10T03:26:10.920Z,101070.16
2017-11-10T03:28:38.415Z,101063.08
2017-11-10T03:31:05.946Z,101063.30
2017-11-10T03:33:33.502Z,101064.67
2017-11-10T03:36:00.997Z,101063.66
2017-11-10T03:38:28.626Z,101067.77
2017-11-10T03:40:56.154Z,101066.77
2017-11-10T03:43:23.646Z,101059.80
2017-11-10T03:45:51.185Z,101058.68
2017-11-10T03:48:18.683Z,101054.23
2017-11-10T03:50:46.173Z,101049.67
2017-11-10T03:53:13.697Z,101050.42
2017-11-10T03:55:41.187Z,101050.09
2017-11-10T03:58:08.784Z,101044.39
2017-11-10T04:00:36.347Z,101044.70
2017-11-10T04:03:03.905Z,101042.30
2017-11-10T04:05:31.403Z,101041.25
2017-11-10T04:07:59.024Z,101034.95
2017-11-10T04:10:26.527Z,101043.64
2017-11-10T04:12:54.026Z,101041.36
2017-11-10T04:15:21.560Z,101040.37
2017-11-10T04:17:49.069Z,101039.12
2017-11-10T04:20:16.617Z,101037.37
2017-11-10T04:22:44.152Z,101032.80
2017-11-10T04:25:12.936Z,101035.19
2017-11-10T04:27:40.424Z,101036.95
2017-11-10T04:30:07.976Z,101035.09
2017-11-10T04:32:35.471Z,101023.09
2017-11-10T04:35:02.993Z,101020.52
2017-11-10T04:37:30.522Z,101016.05
2017-11-10T04:39:58.020Z,101011.30
2017-11-10T04:42:25.572Z,100997.59
2017-11-10T04:44:53.186Z,100999.77
2017-11-10T04:47:20.787Z,101007.85
2017-11-10T04:49:48.283Z,101020.95
2017-11-10T04:52:15.840Z,101030.50
2017-11-10T04:54:43.364Z,101028.00
2017-11-10T04:57:10.852Z,101022.31
2017-11-10T04:59:38.373Z,101017.56
2017-11-10T05:02:05.864Z,101013.52
2017-11-10T05:04:33.393Z,101022.36
2017-11-10T05:07:00.917Z,101018.09
2017-11-10T05:09:28.432Z,101018.39
2017-11-10T05:11:55.924Z,101023.19
2017-11-10T05:14:23.452Z,101009.72
2017-11-10T05:16:50.962Z,101011.52
2017-11-10T05:19:18.579Z,101005.07
2017-11-10T05:21:46.313Z,101005.08
2017-11-10T05:24:13.805Z,100996.28
2017-11-10T05:26:41.299Z,100994.81
2017-11-10T05:29:08.839Z,100991.52
2017-11-10T05:31:36.329Z,100996.91
2017-11-10T05:34:03.835Z,100999.50
2017-11-10T05:36:31.374Z,100992.05
2017-11-10T05:38:58.868Z,100995.38
2017-11-10T05:41:26.367Z,100997.03
2017-11-10T05:43:53.921Z,100996.73
2017-11-10T05:46:21.414Z,101001.83
2017-11-10T05:48:48.905Z,100994.48
2017-11-10T05:51:16.448Z,100998.64
2017-11-10T05:53:43.941Z,101004.22
2017-11-10T05:56:11.433Z,100998.86
2017-11-10T05:58:38.949Z,100996.47
2017-11-10T06:01:07.248Z,100990.25
2017-11-10T06:03:34.786Z,100993.14
2017-11-10T06:06:02.280Z,100990.25
2017-11-10T06:08:29.773Z,100987.52
2017-11-10T06:10:57.306Z,100988.76
2017-11-10T06:13:24.798Z,100988.16
2017-11-10T06:15:52.305Z,100978.94
2017-11-10T06:18:19.974Z,100978.42
2017-11-10T06:20:47.479Z,100977.56
2017-11-10T06:23:14.987Z,100970.18
2017-11-10T06:25:42.542Z,100977.86
2017-11-10T06:28:10.060Z,100973.63
2017-11-10T06:30:37.585Z,100970.52
2017-11-10T06:33:05.102Z,100968.23
2017-11-10T06:35:32.690Z,100966.47
2017-11-10T06:38:00.349Z,100963.66
2017-11-10T06:40:27.907Z,100962.35
2017-11-10T06:42:55.402Z,100961.94
2017-11-10T06:45:22.950Z,100958.42
2017-11-10T06:47:50.443Z,100955.72
2017-11-10T06:50:17.951Z,100952.17
2017-11-10T06:52:45.488Z,100952.28
2017-11-10T06:55:12.977Z,100957.04
2017-11-10T06:57:40.534Z,100952.50
2017-11-10T07:00:08.053Z,100953.73
2017-11-10T07:02:35.548Z,100958.30
2017-11-10T07:05:03.048Z,100946.47
2017-11-10T07:07:30.670Z,100942.65
2017-11-10T07:09:58.229Z,100943.28
2017-11-10T07:12:25.726Z,100936.95
2017-11-10T07:14:53.266Z,100932.39
2017-11-10T07:17:20.847Z,100932.39
2017-11-10T07:19:48.344Z,100935.80
2017-11-10T07:22:15.898Z,100937.06
2017-11-10T07:24:43.481Z,100935.00
2017-11-10T07:27:10.970Z,100923.50
2017-11-10T07:29:38.585Z,100929.52
2017-11-10T07:32:06.072Z,100929.30
2017-11-10T07:34:33.805Z,100929.82
2017-11-10T07:37:01.300Z,100922.47
2017-11-10T07:39:28.818Z,100920.71
2017-11-10T07:41:56.352Z,100914.87
2017-11-10T07:44:23.940Z,100911.47
2017-11-10T07:46:51.451Z,100904.09
2017-11-10T07:49:19.164Z,100899.55
2017-11-10T07:51:46.676Z,100905.85
2017-11-10T07:54:14.164Z,100897.23
2017-11-10T07:56:41.848Z,100899.96
2017-11-10T07:59:09.336Z,100901.73
2017-11-10T08:01:36.849Z,100901.20
2017-11-10T08:04:04.433Z,100903.98
2017-11-10T08:06:31.937Z,100891.45
2017-11-10T08:08:59.432Z,100896.52
2017-11-10T08:11:26.972Z,100898.28
2017-11-10T08:13:54.470Z,100895.39
2017-11-10T08:16:21.969Z,100886.03
2017-11-10T08:18:49.510Z,100873.92
2017-11-10T08:21:17.011Z,100867.28
2017-11-10T08:23:44.587Z,100857.03
2017-11-10T08:26:12.141Z,100859.70
2017-11-10T08:28:39.687Z,100849.12
2017-11-10T08:31:07.187Z,100846.55
2017-11-10T08:33:34.678Z,100851.84
2017-11-10T08:36:02.192Z,100846.65
2017-11-10T08:38:29.687Z,100836.28
2017-11-10T08:40:57.187Z,100833.69
2017-11-10T08:43:24.753Z,100833.45
2017-11-10T08:45:52.326Z,100822.05
2017-11-10T08:48:19.874Z,100813.64
2017-11-10T08:50:47.533Z,100806.49
2017-11-10T08:53:15.028Z,100792.58
2017-11-10T08:55:42.514Z,100781.98
2017-11-10T08:58:10.198Z,100779.79
2017-11-10T09:00:37.695Z,100778.85
2017-11-10T09:03:05.209Z,100774.50
2017-11-10T09:05:32.735Z,100765.87
2017-11-10T09:08:00.221Z,100759.44
2017-11-10T09:10:27.716Z,100744.28
2017-11-10T09:12:55.356Z,100748.02
2017-11-10T09:15:22.852Z,100744.28
2017-11-10T09:17:50.392Z,100730.18
2017-11-10T09:20:17.936Z,100725.61
2017-11-10T09:22:45.463Z,100721.45
2017-11-10T09:25:12.974Z,100710.46
2017-11-10T09:27:40.514Z,100711.80
2017-11-10T09:30:18.512Z,100712.48
2017-11-10T09:32:47.973Z,100723.45
2017-11-10T09:35:21.069Z,100716.95
2017-11-10T09:37:54.419Z,100715.60
2017-11-10T09:40:27.634Z,100719.14
2017-11-10T09:46:22.823Z,100727.06
2017-11-10T09:48:56.000Z,100726.02
2017-11-10T09:51:29.205Z,100723.53
2017-11-10T09:54:02.399Z,100720.62
2017-11-10T09:59:37.384Z,100710.16
2017-11-10T10:02:14.810Z,100704.99
2017-11-10T10:04:42.340Z,100708.09
2017-11-10T10:07:11.329Z,100693.16
2017-11-10T10:09:40.607Z,100693.66
2017-11-10T10:12:13.880Z,100688.76
2017-11-10T10:14:43.302Z,100681.52
2017-11-10T10:17:12.757Z,100673.30
2017-11-10T10:19:45.999Z,100670.81
2017-11-10T10:22:14.297Z,100666.12
2017-11-10T10:24:41.806Z,100650.96
2017-11-10T10:27:09.341Z,100650.64
2017-11-10T10:29:36.829Z,100634.13
2017-11-10T10:32:04.323Z,100630.66
2017-11-10T10:34:31.869Z,100632.88
2017-11-10T10:36:59.361Z,100631.27
2017-11-10T10:39:26.864Z,100628.54
2017-11-10T10:41:54.430Z,100617.20
2017-11-10T10:44:21.938Z,100618.56
2017-11-10T10:46:49.443Z,100615.48
2017-11-10T10:49:16.991Z,100599.95
2017-11-10T10:51:44.561Z,100591.72
2017-11-10T10:54:12.117Z,100582.55
2017-11-10T10:56:39.663Z,100573.70
2017-11-10T10:59:07.157Z,100570.14
2017-11-10T11:01:34.692Z,100567.16
2017-11-10T11:04:02.237Z,100561.91
2017-11-10T11:06:29.736Z,100560.30
2017-11-10T11:08:57.230Z,100548.43
2017-11-10T11:11:24.783Z,100534.70
2017-11-10T11:13:52.272Z,100532.51
2017-11-10T11:16:19.858Z,100532.88
2017-11-10T11:18:47.394Z,100530.58
2017-11-10T11:21:14.877Z,100517.88
2017-11-10T11:23:42.378Z,100520.12
2017-11-10T11:26:09.981Z,100514.75
2017-11-10T11:28:37.480Z,100509.70
2017-11-10T11:31:04.993Z,100508.75
2017-11-10T11:33:32.550Z,100509.11
2017-11-10T11:36:00.231Z,100502.39
2017-11-10T11:38:27.725Z,100494.33
2017-11-10T11:40:55.252Z,100484.13
2017-11-10T11:43:22.772Z,100477.14
2017-11-10T11:45:50.381Z,100476.70
2017-11-10T11:48:17.942Z,100471.30
2017-11-10T11:50:45.490Z,100472.47
2017-11-10T11:53:12.985Z,100470.09
2017-11-10T11:55:40.505Z,100464.83
2017-11-10T11:58:08.057Z,100464.65
2017-11-10T12:00:35.618Z,100452.12
2017-11-10T12:03:03.169Z,100444.70
2017-11-10T12:05:30.738Z,100435.06
2017-11-10T12:07:58.236Z,100451.52
2017-11-10T12:10:25.729Z,100438.27
2017-11-10T12:12:53.301Z,100425.17
2017-11-10T12:15:20.805Z,100415.37
2017-11-10T12:17:48.298Z,100414.95
2017-11-10T12:20:15.883Z,100406.20
2017-11-10T12:22:43.373Z,100413.00
2017-11-10T12:25:10.896Z,100408.20
2017-11-10T12:27:38.466Z,100407.93
2017-11-10T12:30:05.961Z,100405.86
2017-11-10T12:32:33.477Z,100404.16
2017-11-10T12:35:01.141Z,100403.50
2017-11-10T12:37:28.637Z,100389.73
2017-11-10T12:39:56.285Z,100389.45
2017-11-10T12:42:23.825Z,100389.78
2017-11-10T12:44:51.385Z,100383.68
2017-11-10T12:47:18.876Z,100376.98
2017-11-10T12:49:46.396Z,100374.08
2017-11-10T12:52:13.893Z,100366.48
2017-11-10T12:54:41.376Z,100351.84
2017-11-10T12:57:08.944Z,100345.50
2017-11-10T12:59:36.433Z,100338.23
2017-11-10T13:02:03.922Z,100340.11
2017-11-10T13:04:31.571Z,100335.98
2017-11-10T13:06:59.063Z,100328.86
2017-11-10T13:09:26.552Z,100322.41
2017-11-10T13:11:54.120Z,100316.28
2017-11-10T13:14:21.614Z,100311.16
2017-11-10T13:16:49.136Z,100310.70
2017-11-10T13:19:16.674Z,100307.49
2017-11-10T13:21:44.176Z,100298.35
2017-11-10T13:24:11.670Z,100293.51
2017-11-10T13:26:39.192Z,100290.00
2017-11-10T13:29:06.688Z,100287.30
2017-11-10T13:31:34.293Z,100297.23
2017-11-10T13:34:01.805Z,100299.56
2017-11-10T13:36:29.306Z,100292.94
2017-11-10T13:38:56.883Z,100286.77
2017-11-10T13:41:24.376Z,100277.15
2017-11-10T13:43:51.865Z,100269.16
2017-11-10T13:46:19.400Z,100262.89
2017-11-10T13:48:46.916Z,100270.83
2017-11-10T13:51:14.404Z,100272.34
2017-11-10T13:53:41.939Z,100272.09
2017-11-10T13:56:09.440Z,100268.98
2017-11-10T13:58:36.928Z,100268.28
2017-11-10T14:01:04.587Z,100259.20
2017-11-10T14:03:32.085Z,100255.75
2017-11-10T14:05:59.593Z,100254.73
2017-11-10T14:08:27.170Z,100252.36
2017-11-10T14:10:54.670Z,100237.92
2017-11-10T14:13:22.382Z,100229.36
2017-11-10T14:15:49.885Z,100228.55
2017-11-10T14:18:17.383Z,100228.83
2017-11-10T14:20:44.931Z,100220.39
2017-11-10T14:23:12.434Z,100218.52
2017-11-10T14:25:39.924Z,100215.12
2017-11-10T14:28:07.451Z,100216.13
2017-11-10T14:30:34.946Z,100198.80
2017-11-10T14:33:02.433Z,100201.70
2017-11-10T14:35:29.978Z,100198.59
2017-11-10T14:37:57.469Z,100198.59
2017-11-10T14:40:24.959Z,100198.71
2017-11-10T14:42:52.468Z,100192.30
2017-11-10T14:45:20.017Z,100190.56
2017-11-10T14:47:47.607Z,100179.28
2017-11-10T14:50:15.110Z,100174.72
2017-11-10T14:52:42.654Z,100177.92
2017-11-10T14:55:10.152Z,100152.28
2017-11-10T14:57:37.641Z,100154.17
2017-11-10T15:00:05.288Z,100153.04
2017-11-10T15:02:32.781Z,100145.67
2017-11-10T15:05:00.312Z,100142.92
2017-11-10T15:07:27.835Z,100138.71
2017-11-10T15:09:55.328Z,100140.06
2017-11-10T15:12:22.825Z,100142.16
2017-11-10T15:14:50.343Z,100131.31
2017-11-10T15:17:17.836Z,100120.85
2017-11-10T15:19:45.465Z,100119.63
2017-11-10T15:22:12.956Z,100113.08
2017-11-10T15:24:40.458Z,100118.28
2017-11-10T15:27:07.990Z,100104.06
2017-11-10T15:29:35.489Z,100108.55
2017-11-10T15:32:02.978Z,100108.48
2017-11-10T15:34:30.513Z,100103.30
2017-11-10T15:36:58.075Z,100093.25
2017-11-10T15:39:25.574Z,100095.55
2017-11-10T15:41:53.289Z,100081.45
2017-11-10T15:44:20.810Z,100079.89
2017-11-10T15:46:48.301Z,100070.38
2017-11-10T15:49:15.896Z,100082.20
2017-11-10T15:51:43.398Z,100082.95
2017-11-10T15:54:10.905Z,100066.59
2017-11-10T15:56:38.456Z,100066.77
2017-11-10T15:59:05.954Z,100061.27
2017-11-10T16:01:33.489Z,100060.87
2017-11-10T16:04:01.134Z,100056.82
2017-11-10T16:06:28.625Z,100057.39
2017-11-10T16:08:56.124Z,100055.95
2017-11-10T16:11:23.656Z,100051.50
2017-11-10T16:13:51.161Z,100036.47
2017-11-10T16:16:18.659Z,100012.20
2017-11-10T16:18:46.196Z,100018.55
2017-11-10T16:21:13.740Z,100022.50
2017-11-10T16:23:41.236Z,100021.76
2017-11-10T16:26:08.766Z,100005.38
2017-11-10T16:28:36.249Z,100005.05
2017-11-10T16:31:03.741Z,99994.78
2017-11-10T16:33:31.271Z,99998.57
2017-11-10T16:35:58.755Z,100002.62
2017-11-10T16:38:26.253Z,100005.51
2017-11-10T16:40:53.779Z,99998.83
2017-11-10T16:43:21.273Z,100000.25
2017-11-10T16:45:48.763Z,99998.90
2017-11-10T16:48:16.299Z,100002.70
2017-11-10T16:50:43.793Z,99997.21
2017-11-10T16:53:11.277Z,99993.26
2017-11-10T16:55:38.793Z,99986.23
2017-11-10T16:58:06.282Z,99982.47
2017-11-10T17:00:33.868Z,99988.59
2017-11-10T17:03:01.418Z,99982.25
2017-11-10T17:05:28.911Z,99987.05
2017-11-10T17:07:56.438Z,99987.77
2017-11-10T17:10:24.022Z,99986.70
2017-11-10T17:12:51.589Z,99987.30
2017-11-10T17:15:19.065Z,99986.70
2017-11-10T17:17:46.782Z,99988.18
2017-11-10T17:20:14.258Z,99987.05
2017-11-10T17:22:41.796Z,99993.50
2017-11-10T17:25:09.357Z,99999.84
2017-11-10T17:27:36.847Z,100005.14
2017-11-10T17:30:04.347Z,99994.34
2017-11-10T17:32:31.868Z,100009.02
2017-11-10T17:34:59.412Z,100005.00
2017-11-10T17:37:26.957Z,100013.81
2017-11-10T17:39:54.497Z,100019.06
2017-11-10T17:42:21.999Z,100015.30
2017-11-10T17:44:49.528Z,100047.88
2017-11-10T17:47:17.058Z,100036.33
2017-11-10T17:49:44.550Z,100053.05
2017-11-10T17:52:12.040Z,100052.94
2017-11-10T17:54:39.577Z,100053.66
2017-11-10T17:57:07.066Z,100045.23
2017-11-10T17:59:34.554Z,100055.06
2017-11-10T18:02:02.154Z,100056.22
2017-11-10T18:04:29.675Z,100064.52
2017-11-10T18:06:57.162Z,100060.59
2017-11-10T18:09:24.690Z,100063.00
2017-11-10T18:11:52.182Z,100083.08
2017-11-10T18:14:19.669Z,100092.00
2017-11-10T18:16:47.202Z,100087.45
2017-11-10T18:19:14.694Z,100076.47
2017-11-10T18:21:42.179Z,100079.09
2017-11-10T18:24:09.693Z,100081.67
2017-11-10T18:26:37.189Z,100080.66
2017-11-10T18:29:04.784Z,100091.97
2017-11-10T18:31:32.332Z,100105.45
2017-11-10T18:33:59.888Z,100116.23
2017-11-10T18:36:27.368Z,100124.19
2017-11-10T18:38:54.962Z,100120.31
2017-11-10T18:41:22.485Z,100118.97
2017-11-10T18:43:50.028Z,100126.13
2017-11-10T18:46:17.553Z,100127.06
2017-11-10T18:48:45.985Z,100125.99
2017-11-10T18:51:13.482Z,100128.61
2017-11-10T18:53:41.768Z,100128.66
2017-11-10T18:56:09.310Z,100116.98
2017-11-10T18:58:36.808Z,100117.77
2017-11-10T19:01:04.396Z,100112.23
2017-11-10T19:03:31.922Z,100106.31
2017-11-10T19:05:59.514Z,100122.69
2017-11-10T19:08:26.999Z,100122.97
2017-11-10T19:10:54.544Z,100125.47
2017-11-10T19:13:22.031Z,100125.26
2017-11-10T19:15:49.629Z,100124.94
2017-11-10T19:18:17.162Z,100119.02
2017-11-10T19:20:44.648Z,100120.59
2017-11-10T19:23:12.136Z,100113.70
2017-11-10T19:25:39.761Z,100126.15
2017-11-10T19:28:07.254Z,100120.52
2017-11-10T19:30:34.779Z,100117.63
2017-11-10T19:33:02.300Z,100124.36
2017-11-10T19:35:29.791Z,100126.36
2017-11-10T19:37:57.477Z,100117.83
2017-11-10T19:40:25.058Z,100126.69
2017-11-10T19:42:52.615Z,100123.62
2017-11-10T19:45:20.162Z,100129.34
2017-11-10T19:47:47.815Z,100133.42
2017-11-10T19:50:15.377Z,100130.55
2017-11-10T19:52:42.947Z,100131.78
2017-11-10T19:55:10.659Z,100138.92
2017-11-10T19:57:38.465Z,100137.78
2017-11-10T20:00:06.230Z,100136.80
2017-11-10T20:02:34.097Z,100143.32
2017-11-10T20:05:01.944Z,100146.55
2017-11-10T20:07:29.725Z,100149.55
2017-11-10T20:09:57.452Z,100152.66
2017-11-10T20:12:25.254Z,100156.00
2017-11-10T20:14:53.249Z,100151.05
2017-11-10T20:17:21.088Z,100160.00
2017-11-10T20:19:48.943Z,100158.74
2017-11-10T20:22:16.718Z,100162.83
2017-11-10T20:24:44.484Z,100162.45
2017-11-10T20:27:12.087Z,100161.58
2017-11-10T20:29:39.710Z,100159.63
2017-11-10T20:32:07.280Z,100165.21
2017-11-10T20:34:34.880Z,100164.28
2017-11-10T20:37:02.386Z,100166.03
2017-11-10T20:39:30.025Z,100169.13
2017-11-10T20:41:57.603Z,100169.13
2017-11-10T20:44:25.145Z,100172.06
2017-11-10T20:46:52.733Z,100170.45
2017-11-10T20:49:20.247Z,100174.88
2017-11-10T20:51:47.841Z,100173.52
2017-11-10T20:54:15.436Z,100167.41
2017-11-10T20:56:42.941Z,100172.47
2017-11-10T20:59:10.452Z,100184.79
2017-11-10T21:01:38.010Z,100170.80
2017-11-10T21:04:05.583Z,100179.97
2017-11-10T21:06:33.145Z,100180.61
2017-11-10T21:09:00.687Z,100174.84
2017-11-10T21:11:28.212Z,100176.61
2017-11-10T21:13:55.697Z,100179.24
2017-11-10T21:16:23.305Z,100174.18
2017-11-10T21:18:50.797Z,100174.30
2017-11-10T21:21:18.276Z,100172.95
2017-11-10T21:23:45.880Z,100180.41
2017-11-10T21:26:13.452Z,100179.97
2017-11-10T21:28:40.945Z,100182.41
2017-11-10T21:31:08.555Z,100181.25
2017-11-10T21:33:36.140Z,100187.22
2017-11-10T21:36:03.707Z,100183.77
2017-11-10T21:38:31.226Z,100180.88
2017-11-10T21:40:58.815Z,100185.31
2017-11-10T21:43:26.452Z,100189.65
2017-11-10T21:45:53.943Z,100181.78
2017-11-10T21:48:21.433Z,100183.16
2017-11-10T21:50:49.303Z,100188.73
2017-11-10T21:53:16.908Z,100191.49
2017-11-10T21:55:44.406Z,100188.06
2017-11-10T21:58:11.933Z,100189.18
2017-11-10T22:00:39.421Z,100187.16
2017-11-10T22:03:06.913Z,100186.25
2017-11-10T22:05:34.454Z,100187.98
2017-11-10T22:08:01.937Z,100183.30
2017-11-10T22:10:29.426Z,100191.38
2017-11-10T22:12:57.000Z,100185.87
2017-11-10T22:15:24.476Z,100183.06
2017-11-10T22:17:52.009Z,100198.52
2017-11-10T22:20:19.492Z,100197.58
2017-11-10T22:22:46.989Z,100192.81
2017-11-10T22:25:14.523Z,100194.77
2017-11-10T22:27:42.010Z,100195.59
2017-11-10T22:30:09.494Z,100194.27
2017-11-10T22:32:37.029Z,100199.77
2017-11-10T22:35:04.518Z,100200.01
2017-11-10T22:37:32.021Z,100204.98
2017-11-10T22:39:59.561Z,100202.84
2017-11-10T22:42:27.036Z,100207.11
2017-11-10T22:44:54.519Z,100205.05
2017-11-10T22:47:22.084Z,100201.36
2017-11-10T22:49:49.561Z,100196.19
2017-11-10T22:52:17.046Z,100202.96
2017-11-10T22:54:44.565Z,100203.98
2017-11-10T22:57:12.054Z,100202.33
2017-11-10T22:59:39.679Z,100193.73
2017-11-10T23:02:07.236Z,100196.34
2017-11-10T23:04:34.779Z,100195.09
2017-11-10T23:07:02.349Z,100209.17
2017-11-10T23:09:29.831Z,100200.98
2017-11-10T23:11:57.372Z,100199.86
2017-11-10T23:14:24.852Z,100200.07
2017-11-10T23:16:52.389Z,100209.89
2017-11-10T23:19:19.901Z,100207.61
2017-11-10T23:21:47.402Z,100215.56
2017-11-10T23:24:14.919Z,100210.50
2017-11-10T23:26:42.411Z,100206.48
2017-11-10T23:29:09.893Z,100205.76
2017-11-10T23:31:37.432Z,100217.23
2017-11-10T23:34:04.921Z,100213.20
2017-11-10T23:36:32.396Z,100216.70
2017-11-10T23:39:00.024Z,100212.17
2017-11-10T23:41:27.521Z,100214.27
2017-11-10T23:43:55.000Z,100224.36
2017-11-10T23:46:22.589Z,100225.92
2017-11-10T23:48:50.065Z,100221.36
2017-11-10T23:51:17.554Z,100223.02
2017-11-10T23:53:45.056Z,100223.02
2017-11-10T23:56:12.616Z,100229.86
2017-11-10T23:58:41.196Z,100228.52
